Disclaimer

Please do not use the information listed here in-flight or in-navigation, as they are not provided to us by the airports but are provided by volunteers, so they might be outdated.

Search


Regions


Airport information page

Radio informations:
Tower (TWR) - 118.25 MHz
Automatic Terminal Information Service (ATIS) - 125.85 MHz

Airport informations:
Latitude: 59° 52' 44.00" N
Longitude: 001° 17' 44.00" W
Elevation: 20 feet - 6 meters
Operating hours: Remarks
Operating agency: Civil government, landing fees and diplomatic clearance may be required
Timezone: UTC 0(+1DT) - Last Sunday in March to last Sunday in October
Fuel: Jet A1, without icing nhibitor.

100/130 MIL Spec, low lead, aviation gasoline (BLUE)

Runway information:
06/24 - 1804 x 148 feet< - >550 x 45 meters
09/27 - 3871 x 151 feet< - >1180 x 46 meters
15/33 - 4678 x 151 feet< - >1426 x 46 meters

Recent METARs:
EGPB 202150Z AUTO 09015KT 9999 BKN022/// 08/03 Q1026
EGPB 202220Z AUTO 08013KT 9999 BKN022/// 08/03 Q1026
EGPB 202250Z AUTO 09013KT 9999 SCT021/// 07/04 Q1026

Airport on the map: